PKWA TAF

82.2 °F / 27.9 °C
E at 13 MPH
79%
75.2°F / 24.0 °C
29.9" (1012 mb)
10 mile(s)
mostly cloudy
2017.03.27 1020 UTC

PKWA TAF

2017/03/27 10:57
TAF
AMD PKWA 270957Z 2710/2806 06015KT P6SM VCSH SCT020 SCT035